Аэропорт: Уфа. Уфа

ICAO: UWUU

METAR:
2018/11/19 10:00
UWUU 191000Z 20002MPS 170V240 9999 OVC024 01/M05 Q1023 R14R/1///52 NOSIG RMK QFE757/1010
METAR:
2018/11/19 09:21
TAF TAF UWUU 190757Z 1909/2009 22003G08MPS 9999 BKN020 
      TEMPO 1909/1915 19003G08MPS 3100 -SHSNRA BKN011CB 
      TEMPO 1915/2006 19003G08MPS 0300 +SHSNRA FZFG VV003 
      TEMPO 2006/2009 19003G08MPS 2100 -SNRA BR VV007